sensor_id;sensor_type;location;lat;lon;timestamp;temperature;humidity
16038;DHT22;8123;50.906;6.172;2023-04-20T00:01:37;7.10;70.30
16038;DHT22;8123;50.906;6.172;2023-04-20T00:04:03;7.40;70.90
16038;DHT22;8123;50.906;6.172;2023-04-20T00:06:29;7.10;70.40
16038;DHT22;8123;50.906;6.172;2023-04-20T00:08:56;7.10;71.20
16038;DHT22;8123;50.906;6.172;2023-04-20T00:11:22;7.00;71.70
16038;DHT22;8123;50.906;6.172;2023-04-20T00:13:47;7.10;71.70
16038;DHT22;8123;50.906;6.172;2023-04-20T00:16:13;7.30;70.70
16038;DHT22;8123;50.906;6.172;2023-04-20T00:18:39;7.00;69.40
16038;DHT22;8123;50.906;6.172;2023-04-20T00:21:05;7.00;68.90
16038;DHT22;8123;50.906;6.172;2023-04-20T00:23:30;7.00;69.40
16038;DHT22;8123;50.906;6.172;2023-04-20T00:25:56;7.30;68.70
16038;DHT22;8123;50.906;6.172;2023-04-20T00:28:21;7.00;68.20
16038;DHT22;8123;50.906;6.172;2023-04-20T00:30:47;7.30;68.40
16038;DHT22;8123;50.906;6.172;2023-04-20T00:33:13;7.20;67.30
16038;DHT22;8123;50.906;6.172;2023-04-20T00:35:38;7.00;66.30
16038;DHT22;8123;50.906;6.172;2023-04-20T00:38:04;7.10;67.40
16038;DHT22;8123;50.906;6.172;2023-04-20T00:40:30;7.30;68.30
16038;DHT22;8123;50.906;6.172;2023-04-20T00:43:13;6.90;67.70
16038;DHT22;8123;50.906;6.172;2023-04-20T00:45:39;6.90;67.90
16038;DHT22;8123;50.906;6.172;2023-04-20T00:48:05;6.80;68.90
16038;DHT22;8123;50.906;6.172;2023-04-20T00:50:33;6.80;69.60
16038;DHT22;8123;50.906;6.172;2023-04-20T00:52:59;6.70;69.40
16038;DHT22;8123;50.906;6.172;2023-04-20T00:55:26;6.70;70.00
16038;DHT22;8123;50.906;6.172;2023-04-20T00:57:52;6.60;70.10
16038;DHT22;8123;50.906;6.172;2023-04-20T01:00:18;6.60;70.10
16038;DHT22;8123;50.906;6.172;2023-04-20T01:02:44;6.60;70.60
16038;DHT22;8123;50.906;6.172;2023-04-20T01:05:11;6.50;71.40
16038;DHT22;8123;50.906;6.172;2023-04-20T01:07:37;6.80;73.00
16038;DHT22;8123;50.906;6.172;2023-04-20T01:10:03;6.40;75.30
16038;DHT22;8123;50.906;6.172;2023-04-20T01:12:29;6.40;77.50
16038;DHT22;8123;50.906;6.172;2023-04-20T01:17:27;6.30;79.60
16038;DHT22;8123;50.906;6.172;2023-04-20T01:19:53;6.50;79.90
16038;DHT22;8123;50.906;6.172;2023-04-20T01:22:19;6.30;82.60
16038;DHT22;8123;50.906;6.172;2023-04-20T01:24:46;6.30;80.50
16038;DHT22;8123;50.906;6.172;2023-04-20T01:27:15;6.30;81.50
16038;DHT22;8123;50.906;6.172;2023-04-20T01:29:42;6.30;81.60
16038;DHT22;8123;50.906;6.172;2023-04-20T01:32:08;6.50;83.00
16038;DHT22;8123;50.906;6.172;2023-04-20T01:34:33;6.40;85.20
16038;DHT22;8123;50.906;6.172;2023-04-20T01:36:59;6.20;83.10
16038;DHT22;8123;50.906;6.172;2023-04-20T01:39:25;6.40;84.40
16038;DHT22;8123;50.906;6.172;2023-04-20T01:41:51;6.20;84.80
16038;DHT22;8123;50.906;6.172;2023-04-20T01:44:16;6.10;85.00
16038;DHT22;8123;50.906;6.172;2023-04-20T01:46:42;6.10;86.50
16038;DHT22;8123;50.906;6.172;2023-04-20T01:49:08;6.10;84.70
16038;DHT22;8123;50.906;6.172;2023-04-20T01:51:34;6.20;85.90
16038;DHT22;8123;50.906;6.172;2023-04-20T01:54:00;6.50;85.50
16038;DHT22;8123;50.906;6.172;2023-04-20T01:56:26;6.50;84.80
16038;DHT22;8123;50.906;6.172;2023-04-20T01:58:53;6.40;84.50
16038;DHT22;8123;50.906;6.172;2023-04-20T02:01:18;6.30;77.90
16038;DHT22;8123;50.906;6.172;2023-04-20T02:03:44;6.40;78.50
16038;DHT22;8123;50.906;6.172;2023-04-20T02:06:10;6.40;78.40
16038;DHT22;8123;50.906;6.172;2023-04-20T02:08:35;6.70;77.60
16038;DHT22;8123;50.906;6.172;2023-04-20T02:11:01;6.50;79.00
16038;DHT22;8123;50.906;6.172;2023-04-20T02:13:27;6.50;78.90
16038;DHT22;8123;50.906;6.172;2023-04-20T02:15:52;6.50;78.70
16038;DHT22;8123;50.906;6.172;2023-04-20T02:18:18;6.40;77.70
16038;DHT22;8123;50.906;6.172;2023-04-20T02:20:44;6.40;78.70
16038;DHT22;8123;50.906;6.172;2023-04-20T02:23:11;6.60;78.90
16038;DHT22;8123;50.906;6.172;2023-04-20T02:25:37;6.60;79.30
16038;DHT22;8123;50.906;6.172;2023-04-20T02:28:03;6.50;78.90
16038;DHT22;8123;50.906;6.172;2023-04-20T02:30:29;6.50;80.00
16038;DHT22;8123;50.906;6.172;2023-04-20T02:32:55;6.50;77.40
16038;DHT22;8123;50.906;6.172;2023-04-20T02:35:21;6.50;76.00
16038;DHT22;8123;50.906;6.172;2023-04-20T02:37:46;6.70;74.50
16038;DHT22;8123;50.906;6.172;2023-04-20T02:40:13;6.50;74.40
16038;DHT22;8123;50.906;6.172;2023-04-20T02:42:39;6.50;73.00
16038;DHT22;8123;50.906;6.172;2023-04-20T02:45:05;6.50;73.90
16038;DHT22;8123;50.906;6.172;2023-04-20T02:47:31;6.50;74.00
16038;DHT22;8123;50.906;6.172;2023-04-20T02:49:56;6.50;73.10
16038;DHT22;8123;50.906;6.172;2023-04-20T02:52:22;6.70;73.00
16038;DHT22;8123;50.906;6.172;2023-04-20T02:54:48;6.50;73.00
16038;DHT22;8123;50.906;6.172;2023-04-20T02:57:14;6.70;73.20
16038;DHT22;8123;50.906;6.172;2023-04-20T02:59:39;6.60;73.00
16038;DHT22;8123;50.906;6.172;2023-04-20T03:02:05;6.70;73.90
16038;DHT22;8123;50.906;6.172;2023-04-20T03:04:31;6.70;75.10
16038;DHT22;8123;50.906;6.172;2023-04-20T03:06:57;7.00;74.00
16038;DHT22;8123;50.906;6.172;2023-04-20T03:09:23;6.70;74.10
16038;DHT22;8123;50.906;6.172;2023-04-20T03:11:49;6.90;74.90
16038;DHT22;8123;50.906;6.172;2023-04-20T03:14:15;6.60;74.30
16038;DHT22;8123;50.906;6.172;2023-04-20T03:16:41;6.60;74.70
16038;DHT22;8123;50.906;6.172;2023-04-20T03:19:08;6.60;75.00
16038;DHT22;8123;50.906;6.172;2023-04-20T03:21:33;6.60;74.60
16038;DHT22;8123;50.906;6.172;2023-04-20T03:24:00;6.60;75.00
16038;DHT22;8123;50.906;6.172;2023-04-20T03:26:25;6.80;75.60
16038;DHT22;8123;50.906;6.172;2023-04-20T03:28:51;6.70;74.40
16038;DHT22;8123;50.906;6.172;2023-04-20T03:31:17;6.60;74.40
16038;DHT22;8123;50.906;6.172;2023-04-20T03:33:42;6.60;74.40
16038;DHT22;8123;50.906;6.172;2023-04-20T03:36:08;6.70;74.40
16038;DHT22;8123;50.906;6.172;2023-04-20T03:38:35;6.70;75.30
16038;DHT22;8123;50.906;6.172;2023-04-20T03:41:01;6.60;76.00
16038;DHT22;8123;50.906;6.172;2023-04-20T03:43:26;6.60;76.00
16038;DHT22;8123;50.906;6.172;2023-04-20T03:45:52;6.60;76.00
16038;DHT22;8123;50.906;6.172;2023-04-20T03:48:18;6.60;76.70
16038;DHT22;8123;50.906;6.172;2023-04-20T03:50:43;6.60;76.90
16038;DHT22;8123;50.906;6.172;2023-04-20T03:53:09;6.70;77.10
16038;DHT22;8123;50.906;6.172;2023-04-20T03:55:35;6.70;77.50
16038;DHT22;8123;50.906;6.172;2023-04-20T03:58:00;6.70;77.10
16038;DHT22;8123;50.906;6.172;2023-04-20T04:00:26;6.70;77.60
16038;DHT22;8123;50.906;6.172;2023-04-20T04:02:52;6.80;77.40
16038;DHT22;8123;50.906;6.172;2023-04-20T04:05:17;6.80;77.80
16038;DHT22;8123;50.906;6.172;2023-04-20T04:07:43;6.80;76.20
16038;DHT22;8123;50.906;6.172;2023-04-20T04:10:09;6.80;76.40
16038;DHT22;8123;50.906;6.172;2023-04-20T04:12:35;6.70;77.70
16038;DHT22;8123;50.906;6.172;2023-04-20T04:15:01;7.10;77.40
16038;DHT22;8123;50.906;6.172;2023-04-20T04:17:26;6.90;77.20
16038;DHT22;8123;50.906;6.172;2023-04-20T04:19:52;6.70;78.50
16038;DHT22;8123;50.906;6.172;2023-04-20T04:22:18;6.70;81.80
16038;DHT22;8123;50.906;6.172;2023-04-20T04:24:43;6.80;85.50
16038;DHT22;8123;50.906;6.172;2023-04-20T04:27:09;7.00;90.10
16038;DHT22;8123;50.906;6.172;2023-04-20T04:29:38;6.70;90.50
16038;DHT22;8123;50.906;6.172;2023-04-20T04:32:06;6.70;88.60
16038;DHT22;8123;50.906;6.172;2023-04-20T04:34:32;6.80;92.30
16038;DHT22;8123;50.906;6.172;2023-04-20T04:36:59;6.70;93.00
16038;DHT22;8123;50.906;6.172;2023-04-20T04:39:26;6.60;92.40
16038;DHT22;8123;50.906;6.172;2023-04-20T04:41:52;6.80;93.70
16038;DHT22;8123;50.906;6.172;2023-04-20T04:44:18;6.70;95.50
16038;DHT22;8123;50.906;6.172;2023-04-20T04:46:44;6.70;98.60
16038;DHT22;8123;50.906;6.172;2023-04-20T04:49:10;6.70;99.90
16038;DHT22;8123;50.906;6.172;2023-04-20T04:51:36;6.80;99.90
16038;DHT22;8123;50.906;6.172;2023-04-20T04:54:02;6.60;99.90
16038;DHT22;8123;50.906;6.172;2023-04-20T04:56:27;6.50;99.90
16038;DHT22;8123;50.906;6.172;2023-04-20T04:58:53;6.50;99.90
16038;DHT22;8123;50.906;6.172;2023-04-20T05:01:19;6.40;99.90
16038;DHT22;8123;50.906;6.172;2023-04-20T05:03:45;6.40;99.90
16038;DHT22;8123;50.906;6.172;2023-04-20T05:06:11;6.30;99.90
16038;DHT22;8123;50.906;6.172;2023-04-20T05:08:37;6.30;99.90
16038;DHT22;8123;50.906;6.172;2023-04-20T05:11:02;6.20;99.90
16038;DHT22;8123;50.906;6.172;2023-04-20T05:13:28;6.40;99.90
16038;DHT22;8123;50.906;6.172;2023-04-20T05:15:53;6.20;99.90
16038;DHT22;8123;50.906;6.172;2023-04-20T05:18:19;6.20;99.90
16038;DHT22;8123;50.906;6.172;2023-04-20T05:20:45;6.30;99.90
16038;DHT22;8123;50.906;6.172;2023-04-20T05:23:10;6.30;99.90
16038;DHT22;8123;50.906;6.172;2023-04-20T05:25:36;6.30;99.90
16038;DHT22;8123;50.906;6.172;2023-04-20T05:28:02;6.30;99.90
16038;DHT22;8123;50.906;6.172;2023-04-20T05:30:28;6.30;99.90
16038;DHT22;8123;50.906;6.172;2023-04-20T05:32:53;6.40;99.90
16038;DHT22;8123;50.906;6.172;2023-04-20T05:35:19;6.40;99.90
16038;DHT22;8123;50.906;6.172;2023-04-20T05:37:45;6.30;99.90
16038;DHT22;8123;50.906;6.172;2023-04-20T05:40:12;6.40;99.90
16038;DHT22;8123;50.906;6.172;2023-04-20T05:42:37;6.40;99.90
16038;DHT22;8123;50.906;6.172;2023-04-20T05:45:04;6.40;99.90
16038;DHT22;8123;50.906;6.172;2023-04-20T05:47:29;6.40;99.90
16038;DHT22;8123;50.906;6.172;2023-04-20T05:49:55;6.40;99.90
16038;DHT22;8123;50.906;6.172;2023-04-20T05:52:21;6.40;99.90
16038;DHT22;8123;50.906;6.172;2023-04-20T05:54:46;6.40;99.90
16038;DHT22;8123;50.906;6.172;2023-04-20T05:57:13;6.40;99.90
16038;DHT22;8123;50.906;6.172;2023-04-20T05:59:39;6.50;99.90
16038;DHT22;8123;50.906;6.172;2023-04-20T06:02:04;6.40;99.90
16038;DHT22;8123;50.906;6.172;2023-04-20T06:04:30;6.50;99.90
16038;DHT22;8123;50.906;6.172;2023-04-20T06:06:56;6.40;99.90
16038;DHT22;8123;50.906;6.172;2023-04-20T06:09:22;6.60;99.90
16038;DHT22;8123;50.906;6.172;2023-04-20T06:11:47;6.50;99.90
16038;DHT22;8123;50.906;6.172;2023-04-20T06:14:13;6.60;99.90
16038;DHT22;8123;50.906;6.172;2023-04-20T06:16:40;6.50;99.90
16038;DHT22;8123;50.906;6.172;2023-04-20T06:19:06;6.50;99.90
16038;DHT22;8123;50.906;6.172;2023-04-20T06:21:33;6.60;99.90
16038;DHT22;8123;50.906;6.172;2023-04-20T06:23:59;6.60;99.90
16038;DHT22;8123;50.906;6.172;2023-04-20T06:26:25;6.50;99.90
16038;DHT22;8123;50.906;6.172;2023-04-20T06:28:51;6.00;99.90
16038;DHT22;8123;50.906;6.172;2023-04-20T06:31:18;6.40;99.90
16038;DHT22;8123;50.906;6.172;2023-04-20T06:33:44;6.40;99.90
16038;DHT22;8123;50.906;6.172;2023-04-20T06:36:10;6.70;99.90
16038;DHT22;8123;50.906;6.172;2023-04-20T06:38:36;6.60;99.90
16038;DHT22;8123;50.906;6.172;2023-04-20T06:41:01;6.50;99.90
16038;DHT22;8123;50.906;6.172;2023-04-20T06:43:30;6.70;99.90
16038;DHT22;8123;50.906;6.172;2023-04-20T06:45:56;6.60;99.90
16038;DHT22;8123;50.906;6.172;2023-04-20T06:48:22;6.60;99.90
16038;DHT22;8123;50.906;6.172;2023-04-20T06:50:49;6.60;99.90
16038;DHT22;8123;50.906;6.172;2023-04-20T06:53:15;6.90;99.90
16038;DHT22;8123;50.906;6.172;2023-04-20T06:55:41;7.00;99.90
16038;DHT22;8123;50.906;6.172;2023-04-20T06:58:07;7.00;99.90
16038;DHT22;8123;50.906;6.172;2023-04-20T07:00:32;6.90;99.90
16038;DHT22;8123;50.906;6.172;2023-04-20T07:02:58;7.10;99.90
16038;DHT22;8123;50.906;6.172;2023-04-20T07:05:24;7.00;99.90
16038;DHT22;8123;50.906;6.172;2023-04-20T07:07:53;7.00;99.90
16038;DHT22;8123;50.906;6.172;2023-04-20T07:10:18;7.10;99.90
16038;DHT22;8123;50.906;6.172;2023-04-20T07:12:44;7.00;99.90
16038;DHT22;8123;50.906;6.172;2023-04-20T07:15:10;7.30;99.90
16038;DHT22;8123;50.906;6.172;2023-04-20T07:17:36;7.10;99.90
16038;DHT22;8123;50.906;6.172;2023-04-20T07:20:02;7.10;99.90
16038;DHT22;8123;50.906;6.172;2023-04-20T07:22:32;7.10;99.90
16038;DHT22;8123;50.906;6.172;2023-04-20T07:25:06;7.00;99.90
16038;DHT22;8123;50.906;6.172;2023-04-20T07:27:36;7.00;99.90
16038;DHT22;8123;50.906;6.172;2023-04-20T07:30:03;7.10;99.90
16038;DHT22;8123;50.906;6.172;2023-04-20T07:32:31;7.00;99.90
16038;DHT22;8123;50.906;6.172;2023-04-20T07:34:57;7.10;99.90
16038;DHT22;8123;50.906;6.172;2023-04-20T07:37:22;7.10;99.90
16038;DHT22;8123;50.906;6.172;2023-04-20T07:39:50;7.20;99.90
16038;DHT22;8123;50.906;6.172;2023-04-20T07:42:16;7.20;99.90
16038;DHT22;8123;50.906;6.172;2023-04-20T07:44:42;7.20;99.90
16038;DHT22;8123;50.906;6.172;2023-04-20T07:47:07;7.30;99.90
16038;DHT22;8123;50.906;6.172;2023-04-20T07:49:35;7.20;99.90
16038;DHT22;8123;50.906;6.172;2023-04-20T07:52:02;7.20;99.90
16038;DHT22;8123;50.906;6.172;2023-04-20T07:54:28;7.20;99.90
16038;DHT22;8123;50.906;6.172;2023-04-20T07:56:53;7.20;99.90
16038;DHT22;8123;50.906;6.172;2023-04-20T07:59:19;7.40;99.90
16038;DHT22;8123;50.906;6.172;2023-04-20T08:01:45;7.40;99.90
16038;DHT22;8123;50.906;6.172;2023-04-20T08:04:11;7.20;99.90
16038;DHT22;8123;50.906;6.172;2023-04-20T08:06:37;7.30;99.90
16038;DHT22;8123;50.906;6.172;2023-04-20T08:09:02;7.20;99.90
16038;DHT22;8123;50.906;6.172;2023-04-20T08:11:28;7.10;99.90
16038;DHT22;8123;50.906;6.172;2023-04-20T08:13:54;7.30;99.90
16038;DHT22;8123;50.906;6.172;2023-04-20T08:16:20;7.20;99.90
16038;DHT22;8123;50.906;6.172;2023-04-20T08:18:45;7.10;99.90
16038;DHT22;8123;50.906;6.172;2023-04-20T08:21:11;7.10;99.90
16038;DHT22;8123;50.906;6.172;2023-04-20T08:23:36;7.10;99.90
16038;DHT22;8123;50.906;6.172;2023-04-20T08:26:03;7.00;99.90
16038;DHT22;8123;50.906;6.172;2023-04-20T08:28:29;7.00;99.90
16038;DHT22;8123;50.906;6.172;2023-04-20T08:30:55;7.00;99.90
16038;DHT22;8123;50.906;6.172;2023-04-20T08:33:20;7.20;99.90
16038;DHT22;8123;50.906;6.172;2023-04-20T08:35:48;7.10;99.90
16038;DHT22;8123;50.906;6.172;2023-04-20T08:38:14;7.20;99.90
16038;DHT22;8123;50.906;6.172;2023-04-20T08:40:40;7.30;99.90
16038;DHT22;8123;50.906;6.172;2023-04-20T08:43:06;7.30;99.90
16038;DHT22;8123;50.906;6.172;2023-04-20T08:45:32;7.20;99.90
16038;DHT22;8123;50.906;6.172;2023-04-20T08:47:58;7.20;99.90
16038;DHT22;8123;50.906;6.172;2023-04-20T08:50:25;7.30;99.90
16038;DHT22;8123;50.906;6.172;2023-04-20T08:52:50;7.00;99.90
16038;DHT22;8123;50.906;6.172;2023-04-20T08:55:19;7.00;99.90
16038;DHT22;8123;50.906;6.172;2023-04-20T08:57:47;6.90;99.90
16038;DHT22;8123;50.906;6.172;2023-04-20T09:00:14;6.90;99.90
16038;DHT22;8123;50.906;6.172;2023-04-20T09:02:50;7.00;99.90
16038;DHT22;8123;50.906;6.172;2023-04-20T09:05:26;7.10;99.90
16038;DHT22;8123;50.906;6.172;2023-04-20T09:07:57;7.10;99.90
16038;DHT22;8123;50.906;6.172;2023-04-20T09:10:24;7.10;99.90
16038;DHT22;8123;50.906;6.172;2023-04-20T09:12:50;7.20;99.90
16038;DHT22;8123;50.906;6.172;2023-04-20T09:15:26;7.20;99.90
16038;DHT22;8123;50.906;6.172;2023-04-20T09:17:52;7.20;99.90
16038;DHT22;8123;50.906;6.172;2023-04-20T09:20:31;7.50;99.90
16038;DHT22;8123;50.906;6.172;2023-04-20T09:23:13;7.30;99.90
16038;DHT22;8123;50.906;6.172;2023-04-20T09:25:39;7.20;99.90
16038;DHT22;8123;50.906;6.172;2023-04-20T09:28:06;7.20;99.90
16038;DHT22;8123;50.906;6.172;2023-04-20T09:30:41;7.30;99.90
16038;DHT22;8123;50.906;6.172;2023-04-20T09:33:07;7.10;99.90
16038;DHT22;8123;50.906;6.172;2023-04-20T09:35:35;7.10;99.90
16038;DHT22;8123;50.906;6.172;2023-04-20T09:38:03;7.30;99.90
16038;DHT22;8123;50.906;6.172;2023-04-20T09:40:28;7.20;99.90
16038;DHT22;8123;50.906;6.172;2023-04-20T09:42:58;7.20;99.90
16038;DHT22;8123;50.906;6.172;2023-04-20T09:45:31;7.30;99.90
16038;DHT22;8123;50.906;6.172;2023-04-20T09:47:57;7.30;99.90
16038;DHT22;8123;50.906;6.172;2023-04-20T09:50:24;7.30;99.90
16038;DHT22;8123;50.906;6.172;2023-04-20T09:52:50;7.50;99.90
16038;DHT22;8123;50.906;6.172;2023-04-20T09:55:16;7.30;99.90
16038;DHT22;8123;50.906;6.172;2023-04-20T09:57:43;7.30;99.90
16038;DHT22;8123;50.906;6.172;2023-04-20T10:00:10;7.40;99.90
16038;DHT22;8123;50.906;6.172;2023-04-20T10:02:37;7.50;99.90
16038;DHT22;8123;50.906;6.172;2023-04-20T10:05:03;7.50;99.90
16038;DHT22;8123;50.906;6.172;2023-04-20T10:07:30;7.60;99.90
16038;DHT22;8123;50.906;6.172;2023-04-20T10:10:10;7.60;99.90
16038;DHT22;8123;50.906;6.172;2023-04-20T10:12:51;7.70;99.90
16038;DHT22;8123;50.906;6.172;2023-04-20T10:15:17;7.70;99.90
16038;DHT22;8123;50.906;6.172;2023-04-20T10:17:43;8.00;99.90
16038;DHT22;8123;50.906;6.172;2023-04-20T10:20:38;7.70;99.90
16038;DHT22;8123;50.906;6.172;2023-04-20T10:23:08;7.80;99.90
16038;DHT22;8123;50.906;6.172;2023-04-20T10:25:34;7.90;99.90
16038;DHT22;8123;50.906;6.172;2023-04-20T10:28:03;8.10;99.90
16038;DHT22;8123;50.906;6.172;2023-04-20T10:30:32;8.00;99.90
16038;DHT22;8123;50.906;6.172;2023-04-20T10:33:09;8.00;99.90
16038;DHT22;8123;50.906;6.172;2023-04-20T10:35:46;8.00;99.90
16038;DHT22;8123;50.906;6.172;2023-04-20T10:38:12;8.10;99.90
16038;DHT22;8123;50.906;6.172;2023-04-20T10:40:38;8.10;99.90
16038;DHT22;8123;50.906;6.172;2023-04-20T10:43:04;8.10;99.90
16038;DHT22;8123;50.906;6.172;2023-04-20T10:45:34;8.20;99.90
16038;DHT22;8123;50.906;6.172;2023-04-20T10:48:09;8.20;99.90
16038;DHT22;8123;50.906;6.172;2023-04-20T10:50:35;8.30;99.90
16038;DHT22;8123;50.906;6.172;2023-04-20T10:53:02;8.40;99.90
16038;DHT22;8123;50.906;6.172;2023-04-20T10:55:28;8.50;99.90
16038;DHT22;8123;50.906;6.172;2023-04-20T10:57:54;8.40;99.90
16038;DHT22;8123;50.906;6.172;2023-04-20T11:00:25;8.50;99.90
16038;DHT22;8123;50.906;6.172;2023-04-20T11:02:53;8.40;99.90
16038;DHT22;8123;50.906;6.172;2023-04-20T11:05:20;8.40;99.90
16038;DHT22;8123;50.906;6.172;2023-04-20T11:07:55;8.20;99.90
16038;DHT22;8123;50.906;6.172;2023-04-20T11:10:23;8.10;99.90
16038;DHT22;8123;50.906;6.172;2023-04-20T11:12:50;8.00;99.90
16038;DHT22;8123;50.906;6.172;2023-04-20T11:15:16;7.90;99.90
16038;DHT22;8123;50.906;6.172;2023-04-20T11:17:42;7.80;99.90
16038;DHT22;8123;50.906;6.172;2023-04-20T11:20:10;7.50;99.90
16038;DHT22;8123;50.906;6.172;2023-04-20T11:22:41;7.20;99.90
16038;DHT22;8123;50.906;6.172;2023-04-20T11:25:09;7.30;99.90
16038;DHT22;8123;50.906;6.172;2023-04-20T11:27:35;7.40;99.90
16038;DHT22;8123;50.906;6.172;2023-04-20T11:30:03;8.00;99.90
16038;DHT22;8123;50.906;6.172;2023-04-20T11:32:31;8.00;99.90
16038;DHT22;8123;50.906;6.172;2023-04-20T11:35:05;8.30;99.90
16038;DHT22;8123;50.906;6.172;2023-04-20T11:37:49;8.60;99.90
16038;DHT22;8123;50.906;6.172;2023-04-20T11:40:16;8.80;99.90
16038;DHT22;8123;50.906;6.172;2023-04-20T11:42:42;8.80;99.90
16038;DHT22;8123;50.906;6.172;2023-04-20T11:45:08;8.80;99.90
16038;DHT22;8123;50.906;6.172;2023-04-20T11:47:36;8.70;99.90
16038;DHT22;8123;50.906;6.172;2023-04-20T11:50:02;8.70;99.90
16038;DHT22;8123;50.906;6.172;2023-04-20T11:52:27;8.80;99.90
16038;DHT22;8123;50.906;6.172;2023-04-20T11:54:53;9.10;99.90
16038;DHT22;8123;50.906;6.172;2023-04-20T11:57:19;9.20;99.90
16038;DHT22;8123;50.906;6.172;2023-04-20T11:59:48;9.10;99.90
16038;DHT22;8123;50.906;6.172;2023-04-20T12:02:14;9.00;99.90
16038;DHT22;8123;50.906;6.172;2023-04-20T12:04:40;9.00;99.90
16038;DHT22;8123;50.906;6.172;2023-04-20T12:07:06;9.00;99.90
16038;DHT22;8123;50.906;6.172;2023-04-20T12:09:31;9.10;99.90
16038;DHT22;8123;50.906;6.172;2023-04-20T12:12:04;9.30;99.90
16038;DHT22;8123;50.906;6.172;2023-04-20T12:14:31;9.30;99.90
16038;DHT22;8123;50.906;6.172;2023-04-20T12:17:00;9.30;99.90
16038;DHT22;8123;50.906;6.172;2023-04-20T12:19:26;9.20;99.90
16038;DHT22;8123;50.906;6.172;2023-04-20T12:21:52;9.20;99.90
16038;DHT22;8123;50.906;6.172;2023-04-20T12:24:17;9.30;99.90
16038;DHT22;8123;50.906;6.172;2023-04-20T12:26:43;9.40;99.90
16038;DHT22;8123;50.906;6.172;2023-04-20T12:29:09;9.60;99.90
16038;DHT22;8123;50.906;6.172;2023-04-20T12:31:34;9.70;99.90
16038;DHT22;8123;50.906;6.172;2023-04-20T12:34:01;9.80;99.90
16038;DHT22;8123;50.906;6.172;2023-04-20T12:36:26;10.00;99.90
16038;DHT22;8123;50.906;6.172;2023-04-20T12:38:52;10.40;99.90
16038;DHT22;8123;50.906;6.172;2023-04-20T12:41:20;9.80;99.90
16038;DHT22;8123;50.906;6.172;2023-04-20T12:43:50;9.70;99.90
16038;DHT22;8123;50.906;6.172;2023-04-20T12:46:17;9.80;99.90
16038;DHT22;8123;50.906;6.172;2023-04-20T12:48:43;9.90;99.90
16038;DHT22;8123;50.906;6.172;2023-04-20T12:51:12;9.90;99.90
16038;DHT22;8123;50.906;6.172;2023-04-20T12:53:38;10.00;99.90
16038;DHT22;8123;50.906;6.172;2023-04-20T12:56:04;10.10;99.90
16038;DHT22;8123;50.906;6.172;2023-04-20T12:58:30;10.30;99.90
16038;DHT22;8123;50.906;6.172;2023-04-20T13:00:56;10.30;99.90
16038;DHT22;8123;50.906;6.172;2023-04-20T13:03:22;10.40;99.90
16038;DHT22;8123;50.906;6.172;2023-04-20T13:05:48;10.50;99.90
16038;DHT22;8123;50.906;6.172;2023-04-20T13:08:13;10.60;99.90
16038;DHT22;8123;50.906;6.172;2023-04-20T13:10:39;10.70;99.90
16038;DHT22;8123;50.906;6.172;2023-04-20T13:13:07;10.80;99.90
16038;DHT22;8123;50.906;6.172;2023-04-20T13:15:33;10.80;99.90
16038;DHT22;8123;50.906;6.172;2023-04-20T13:17:59;10.80;99.90
16038;DHT22;8123;50.906;6.172;2023-04-20T13:20:24;10.80;99.90
16038;DHT22;8123;50.906;6.172;2023-04-20T13:22:55;10.80;99.90
16038;DHT22;8123;50.906;6.172;2023-04-20T13:25:23;10.80;99.90
16038;DHT22;8123;50.906;6.172;2023-04-20T13:27:49;10.80;99.90
16038;DHT22;8123;50.906;6.172;2023-04-20T13:30:15;10.70;99.90
16038;DHT22;8123;50.906;6.172;2023-04-20T13:32:41;10.80;99.90
16038;DHT22;8123;50.906;6.172;2023-04-20T13:35:07;10.70;99.90
16038;DHT22;8123;50.906;6.172;2023-04-20T13:37:32;10.80;99.90
16038;DHT22;8123;50.906;6.172;2023-04-20T13:39:58;10.80;99.90
16038;DHT22;8123;50.906;6.172;2023-04-20T13:42:24;11.00;99.90
16038;DHT22;8123;50.906;6.172;2023-04-20T13:44:50;11.10;99.90
16038;DHT22;8123;50.906;6.172;2023-04-20T13:47:17;11.10;99.90
16038;DHT22;8123;50.906;6.172;2023-04-20T13:49:43;11.00;99.90
16038;DHT22;8123;50.906;6.172;2023-04-20T13:52:09;10.90;99.90
16038;DHT22;8123;50.906;6.172;2023-04-20T13:54:36;10.70;99.90
16038;DHT22;8123;50.906;6.172;2023-04-20T13:57:01;10.60;99.90
16038;DHT22;8123;50.906;6.172;2023-04-20T13:59:27;10.60;99.90
16038;DHT22;8123;50.906;6.172;2023-04-20T14:01:53;10.70;99.90
16038;DHT22;8123;50.906;6.172;2023-04-20T14:04:19;10.70;99.90
16038;DHT22;8123;50.906;6.172;2023-04-20T14:06:44;10.90;99.90
16038;DHT22;8123;50.906;6.172;2023-04-20T14:09:10;11.10;99.90
16038;DHT22;8123;50.906;6.172;2023-04-20T14:11:37;11.50;99.90
16038;DHT22;8123;50.906;6.172;2023-04-20T14:14:04;11.30;99.90
16038;DHT22;8123;50.906;6.172;2023-04-20T14:16:30;11.10;99.90
16038;DHT22;8123;50.906;6.172;2023-04-20T14:18:56;10.90;99.90
16038;DHT22;8123;50.906;6.172;2023-04-20T14:21:21;10.80;99.90
16038;DHT22;8123;50.906;6.172;2023-04-20T14:23:47;10.70;99.90
16038;DHT22;8123;50.906;6.172;2023-04-20T14:26:18;10.80;99.90
16038;DHT22;8123;50.906;6.172;2023-04-20T14:28:44;10.90;99.90
16038;DHT22;8123;50.906;6.172;2023-04-20T14:31:10;11.10;99.90
16038;DHT22;8123;50.906;6.172;2023-04-20T14:33:35;11.20;99.90
16038;DHT22;8123;50.906;6.172;2023-04-20T14:36:02;11.40;99.90
16038;DHT22;8123;50.906;6.172;2023-04-20T14:38:28;11.60;99.90
16038;DHT22;8123;50.906;6.172;2023-04-20T14:40:54;11.70;99.90
16038;DHT22;8123;50.906;6.172;2023-04-20T14:43:19;11.90;99.90
16038;DHT22;8123;50.906;6.172;2023-04-20T14:45:45;11.90;93.70
16038;DHT22;8123;50.906;6.172;2023-04-20T14:48:11;11.80;94.70
16038;DHT22;8123;50.906;6.172;2023-04-20T14:50:37;11.60;94.70
16038;DHT22;8123;50.906;6.172;2023-04-20T14:53:02;11.60;96.90
16038;DHT22;8123;50.906;6.172;2023-04-20T14:55:28;11.40;96.40
16038;DHT22;8123;50.906;6.172;2023-04-20T14:57:55;11.50;95.60
16038;DHT22;8123;50.906;6.172;2023-04-20T15:00:25;11.50;95.30
16038;DHT22;8123;50.906;6.172;2023-04-20T15:02:53;11.50;96.60
16038;DHT22;8123;50.906;6.172;2023-04-20T15:05:24;11.50;95.20
16038;DHT22;8123;50.906;6.172;2023-04-20T15:07:50;11.50;96.80
16038;DHT22;8123;50.906;6.172;2023-04-20T15:10:19;11.50;92.80
16038;DHT22;8123;50.906;6.172;2023-04-20T15:12:46;11.50;93.40
16038;DHT22;8123;50.906;6.172;2023-04-20T15:15:12;11.70;95.50
16038;DHT22;8123;50.906;6.172;2023-04-20T15:17:38;11.70;93.90
16038;DHT22;8123;50.906;6.172;2023-04-20T15:20:04;11.70;94.50
16038;DHT22;8123;50.906;6.172;2023-04-20T15:22:31;11.80;94.70
16038;DHT22;8123;50.906;6.172;2023-04-20T15:24:56;11.70;95.20
16038;DHT22;8123;50.906;6.172;2023-04-20T15:27:22;11.70;92.70
16038;DHT22;8123;50.906;6.172;2023-04-20T15:29:48;11.70;91.00
16038;DHT22;8123;50.906;6.172;2023-04-20T15:32:13;11.80;92.20
16038;DHT22;8123;50.906;6.172;2023-04-20T15:34:39;11.90;93.80
16038;DHT22;8123;50.906;6.172;2023-04-20T15:37:05;12.00;92.10
16038;DHT22;8123;50.906;6.172;2023-04-20T15:39:31;12.30;92.10
16038;DHT22;8123;50.906;6.172;2023-04-20T15:41:56;12.40;87.60
16038;DHT22;8123;50.906;6.172;2023-04-20T15:44:24;12.30;87.60
16038;DHT22;8123;50.906;6.172;2023-04-20T15:46:50;12.20;81.50
16038;DHT22;8123;50.906;6.172;2023-04-20T15:49:15;12.10;85.90
16038;DHT22;8123;50.906;6.172;2023-04-20T15:51:44;11.90;83.50
16038;DHT22;8123;50.906;6.172;2023-04-20T15:54:13;11.70;84.50
16038;DHT22;8123;50.906;6.172;2023-04-20T15:56:39;11.60;87.00
16038;DHT22;8123;50.906;6.172;2023-04-20T15:59:05;11.50;87.20